Time;durP1;ratioP1;P1;durP2;ratioP2;P2;SDS_P1;SDS_P2;PMS_P1;PMS_P2;Temp;Humidity;BMP_temperature;BMP_pressure;BME280_temperature;BME280_humidity;BME280_pressure;Samples;Min_cycle;Max_cycle;Signal;HPM_P1;HPM_P2
2024/01/31 00:00:24;;;;;;;7.15;5.10;;;;;;;6.11;100.00;98965.50;5036700;28;20401;-79
2024/01/31 00:02:50;;;;;;;7.57;5.57;;;;;;;6.13;100.00;98966.16;5036814;28;20391;-79
2024/01/31 00:05:16;;;;;;;8.30;5.75;;;;;;;6.14;100.00;98959.06;5036316;28;20441;-80
2024/01/31 00:07:44;;;;;;;7.28;5.38;;;;;;;6.16;100.00;98968.38;5037051;28;20407;-80
2024/01/31 00:10:11;;;;;;;6.88;5.43;;;;;;;6.17;100.00;98962.13;5037023;28;20395;-79
2024/01/31 00:12:37;;;;;;;6.60;5.18;;;;;;;6.19;100.00;98960.16;5036538;28;20410;-80
2024/01/31 00:15:04;;;;;;;7.78;5.60;;;;;;;6.20;100.00;98956.53;5036405;28;20748;-80
2024/01/31 00:17:30;;;;;;;7.47;5.28;;;;;;;6.23;100.00;98957.97;5036765;28;20403;-79
2024/01/31 00:19:56;;;;;;;6.00;4.50;;;;;;;6.26;100.00;98949.69;5036945;28;20407;-79
2024/01/31 00:22:22;;;;;;;4.33;3.90;;;;;;;6.25;100.00;98957.75;5036524;28;20470;-80
2024/01/31 00:24:50;;;;;;;4.85;4.03;;;;;;;6.26;100.00;98959.41;5038568;28;20426;-80
2024/01/31 00:27:16;;;;;;;4.80;3.95;;;;;;;6.26;100.00;98954.13;5037447;28;20395;-80
2024/01/31 00:29:42;;;;;;;6.45;4.68;;;;;;;6.25;100.00;98963.03;5036691;28;20395;-79
2024/01/31 00:32:08;;;;;;;5.53;4.13;;;;;;;6.24;100.00;98958.78;5037065;28;20892;-80
2024/01/31 00:34:34;;;;;;;5.18;3.95;;;;;;;6.23;100.00;98955.34;5035827;28;20464;-79
2024/01/31 00:37:01;;;;;;;6.88;4.57;;;;;;;6.24;100.00;98958.78;5036215;28;20418;-80
2024/01/31 00:39:31;;;;;;;6.18;4.95;;;;;;;6.23;100.00;98957.97;5036526;28;20422;-80
2024/01/31 00:41:58;;;;;;;6.78;4.85;;;;;;;6.24;100.00;98961.41;5036186;28;20426;-79
2024/01/31 00:44:26;;;;;;;6.03;4.57;;;;;;;6.23;100.00;98957.97;5036698;28;20426;-81
2024/01/31 00:46:52;;;;;;;5.25;4.38;;;;;;;6.25;100.00;98958.59;5041563;28;20422;-80
2024/01/31 00:49:18;;;;;;;4.70;4.05;;;;;;;6.26;100.00;98960.22;5040851;28;20430;-80
2024/01/31 00:51:45;;;;;;;4.55;3.78;;;;;;;6.26;100.00;98968.09;5041443;28;20470;-80
2024/01/31 00:54:12;;;;;;;4.35;3.88;;;;;;;6.28;100.00;98965.28;5040467;28;20399;-80
2024/01/31 00:56:38;;;;;;;7.17;4.20;;;;;;;6.28;100.00;98960.84;5041346;28;20395;-80
2024/01/31 00:59:06;;;;;;;5.53;4.03;;;;;;;6.27;100.00;98969.75;5042272;28;20395;-79
2024/01/31 01:01:32;;;;;;;5.68;4.70;;;;;;;6.28;100.00;98976.63;5041153;28;20407;-80
2024/01/31 01:03:58;;;;;;;6.57;4.63;;;;;;;6.28;100.00;98968.75;5036763;28;20414;-80
2024/01/31 01:06:24;;;;;;;6.03;4.60;;;;;;;6.29;100.00;98969.56;5040315;28;20434;-80
2024/01/31 01:08:50;;;;;;;5.63;4.32;;;;;;;6.28;100.00;98976.63;5040630;28;20395;-80
2024/01/31 01:11:16;;;;;;;5.95;4.38;;;;;;;6.29;100.00;98969.56;5040928;28;20895;-80
2024/01/31 01:13:44;;;;;;;5.25;4.25;;;;;;;6.32;100.00;98967.38;5040591;28;20419;-80
2024/01/31 01:16:11;;;;;;;6.97;4.00;;;;;;;6.34;100.00;98972.44;5041953;28;20425;-80
2024/01/31 01:18:37;;;;;;;6.40;4.10;;;;;;;6.35;100.00;98972.25;5041035;28;20419;-80
2024/01/31 01:21:04;;;;;;;4.88;3.85;;;;;;;6.34;100.00;98970.63;5041517;28;20461;-79
2024/01/31 01:23:30;;;;;;;5.70;4.03;;;;;;;6.36;100.00;98970.44;5040822;28;20498;-80
2024/01/31 01:25:56;;;;;;;5.63;3.88;;;;;;;6.34;100.00;98970.63;5040801;28;20518;-79
2024/01/31 01:28:22;;;;;;;5.45;4.25;;;;;;;6.34;100.00;98978.53;5040721;28;20928;-80
2024/01/31 01:30:49;;;;;;;4.57;3.90;;;;;;;6.33;100.00;98974.25;5040768;28;20427;-80
2024/01/31 01:33:16;;;;;;;6.55;4.18;;;;;;;6.34;100.00;98975.88;5040558;28;20403;-80
2024/01/31 01:35:42;;;;;;;5.15;4.15;;;;;;;6.34;100.00;98977.69;5040475;28;20896;-80
2024/01/31 01:38:08;;;;;;;4.85;3.80;;;;;;;6.35;100.00;98972.25;5040190;28;20395;-80
2024/01/31 01:40:34;;;;;;;7.18;4.90;;;;;;;6.35;100.00;98968.81;5040891;28;20399;-80
2024/01/31 01:43:00;;;;;;;9.82;5.40;;;;;;;6.32;100.00;98975.25;5040395;28;20410;-80
2024/01/31 01:45:29;;;;;;;6.80;5.00;;;;;;;6.33;100.00;98971.63;5039956;28;20431;-80
2024/01/31 01:47:55;;;;;;;7.55;5.53;;;;;;;6.33;100.00;98971.63;5040908;28;20399;-80
2024/01/31 01:50:24;;;;;;;6.63;4.78;;;;;;;6.34;100.00;98961.91;5039746;28;20434;-80
2024/01/31 01:52:51;;;;;;;6.75;4.75;;;;;;;6.35;100.00;98971.44;5040396;28;20401;-80
2024/01/31 01:55:18;;;;;;;6.85;4.90;;;;;;;6.35;100.00;98969.63;5039923;28;20401;-80
2024/01/31 01:57:44;;;;;;;7.70;5.20;;;;;;;6.36;100.00;98973.91;5039503;28;20403;-79
2024/01/31 02:00:12;;;;;;;6.35;4.65;;;;;;;6.36;100.00;98973.91;5039137;28;20733;-80
2024/01/31 02:02:38;;;;;;;6.63;5.33;;;;;;;6.38;100.00;98964.03;5039357;28;20736;-79
2024/01/31 02:05:07;;;;;;;5.57;4.70;;;;;;;6.39;100.00;98968.25;5038525;28;20521;-80
2024/01/31 02:07:36;;;;;;;5.28;4.25;;;;;;;6.40;100.00;98964.63;5039181;28;20517;-78
2024/01/31 02:10:03;;;;;;;6.32;4.53;;;;;;;6.41;100.00;98961.00;5039361;28;20764;-79
2024/01/31 02:12:29;;;;;;;5.30;4.20;;;;;;;6.40;100.00;98955.91;5039078;28;20391;-79
2024/01/31 02:14:57;;;;;;;4.45;3.58;;;;;;;6.40;100.00;98956.72;5039391;28;20803;-79
2024/01/31 02:17:23;;;;;;;4.67;3.70;;;;;;;6.38;100.00;98953.50;5039108;28;20401;-80
2024/01/31 02:19:49;;;;;;;4.63;3.80;;;;;;;6.38;100.00;98948.22;5038824;28;20438;-79
2024/01/31 02:22:21;;;;;;;7.10;4.65;;;;;;;6.38;100.00;98950.06;5038159;28;20931;-79
2024/01/31 02:24:47;;;;;;;5.47;4.15;;;;;;;6.37;100.00;98951.03;5038995;28;20415;-80
2024/01/31 02:27:13;;;;;;;3.92;3.53;;;;;;;6.35;100.00;98942.53;5039155;28;20396;-79
2024/01/31 02:29:39;;;;;;;4.38;3.83;;;;;;;6.36;100.00;98944.16;5038968;28;20433;-79
2024/01/31 02:32:06;;;;;;;4.30;3.80;;;;;;;6.35;100.00;98940.69;5039727;28;20954;-80
2024/01/31 02:34:33;;;;;;;4.60;3.90;;;;;;;6.34;100.00;98939.06;5038780;28;20460;-80
2024/01/31 02:36:59;;;;;;;4.20;3.67;;;;;;;6.34;100.00;98931.19;5039106;28;20403;-80
2024/01/31 02:39:26;;;;;;;5.05;4.22;;;;;;;6.34;100.00;98936.44;5039699;28;20407;-80
2024/01/31 02:41:52;;;;;;;4.20;3.80;;;;;;;6.34;100.00;98938.25;5038750;28;20486;-80
2024/01/31 02:44:19;;;;;;;5.25;4.10;;;;;;;6.34;100.00;98931.19;5039116;28;20411;-80
2024/01/31 02:46:45;;;;;;;7.15;4.40;;;;;;;6.34;100.00;98933.81;5041347;28;20395;-80
2024/01/31 02:49:11;;;;;;;8.07;4.95;;;;;;;6.34;100.00;98933.81;5042359;28;20394;-80
2024/01/31 02:51:37;;;;;;;6.28;5.03;;;;;;;6.35;100.00;98929.38;5039894;28;20391;-79
2024/01/31 02:54:04;;;;;;;7.13;5.28;;;;;;;6.36;100.00;98931.00;5038574;28;20768;-80
2024/01/31 02:56:31;;;;;;;6.03;4.77;;;;;;;6.36;100.00;98928.38;5038118;28;20494;-80
2024/01/31 02:58:57;;;;;;;6.15;5.10;;;;;;;6.37;100.00;98930.00;5038297;28;20449;-80
2024/01/31 03:01:23;;;;;;;6.30;5.10;;;;;;;6.38;100.00;98935.09;5038903;28;20800;-79
2024/01/31 03:03:50;;;;;;;5.32;4.28;;;;;;;6.39;100.00;98939.31;5038665;28;20772;-79
2024/01/31 03:06:16;;;;;;;7.43;4.95;;;;;;;6.39;100.00;98941.16;5045420;28;20745;-79
2024/01/31 03:08:42;;;;;;;6.65;4.88;;;;;;;6.38;100.00;98924.56;5047640;28;20407;-79
2024/01/31 03:11:08;;;;;;;4.72;4.15;;;;;;;6.37;100.00;98933.44;5039729;28;20395;-79
2024/01/31 03:13:35;;;;;;;5.90;3.97;;;;;;;6.39;100.00;98928.81;5038497;28;20860;-80
2024/01/31 03:16:02;;;;;;;6.18;4.28;;;;;;;6.38;100.00;98929.00;5039103;28;20423;-78
2024/01/31 03:18:28;;;;;;;4.80;3.72;;;;;;;6.37;100.00;98933.44;5037131;28;20437;-78
2024/01/31 03:20:55;;;;;;;5.53;4.28;;;;;;;6.37;100.00;98930.81;5036663;28;20449;-79
2024/01/31 03:23:22;;;;;;;4.70;4.10;;;;;;;6.37;100.00;98925.56;5036525;28;20399;-78
2024/01/31 03:25:48;;;;;;;4.90;4.07;;;;;;;6.37;100.00;98922.94;5037481;28;20830;-78
2024/01/31 03:28:14;;;;;;;4.93;3.90;;;;;;;6.37;100.00;98924.75;5037329;28;20399;-80
2024/01/31 03:30:42;;;;;;;12.77;7.25;;;;;;;6.36;100.00;98928.38;5039160;28;20399;-81
2024/01/31 03:33:08;;;;;;;10.27;7.53;;;;;;;6.37;100.00;98925.56;5038394;28;20411;-80
2024/01/31 03:35:35;;;;;;;8.23;6.80;;;;;;;6.42;100.00;98920.53;5038699;28;20404;-80
2024/01/31 03:38:02;;;;;;;9.73;6.63;;;;;;;6.46;100.00;98921.00;5037218;28;20395;-79
2024/01/31 03:40:28;;;;;;;8.40;6.17;;;;;;;6.49;100.00;98929.31;5037784;28;20399;-78
2024/01/31 03:42:54;;;;;;;7.25;5.78;;;;;;;6.51;100.00;98931.78;5047541;28;20398;-80
2024/01/31 03:45:20;;;;;;;6.97;5.25;;;;;;;6.50;100.00;98923.06;5056090;28;20428;-80
2024/01/31 03:47:48;;;;;;;6.07;4.70;;;;;;;6.49;100.00;98929.31;5042086;28;20482;-80
2024/01/31 03:50:14;;;;;;;5.30;4.50;;;;;;;6.48;100.00;98940.03;5038652;28;20395;-80
2024/01/31 03:52:40;;;;;;;4.75;4.13;;;;;;;6.48;100.00;98934.75;5038470;28;20906;-80
2024/01/31 03:55:07;;;;;;;5.32;4.55;;;;;;;6.46;100.00;98937.59;5039660;28;20411;-80
2024/01/31 03:57:33;;;;;;;8.02;5.85;;;;;;;6.45;100.00;98932.53;5041250;28;20391;-80
2024/01/31 04:00:04;;;;;;;6.53;5.38;;;;;;;6.44;100.00;98925.63;5042955;28;20899;-80
2024/01/31 04:02:31;;;;;;;7.70;5.20;;;;;;;6.45;100.00;98928.06;5039219;28;20394;-80
2024/01/31 04:04:59;;;;;;;6.28;4.80;;;;;;;6.46;100.00;98923.63;5040262;28;20430;-81
2024/01/31 04:07:25;;;;;;;5.95;4.57;;;;;;;6.45;100.00;98928.06;5040600;28;20446;-80
2024/01/31 04:09:51;;;;;;;7.82;5.05;;;;;;;6.45;100.00;98927.25;5037400;28;20430;-80
2024/01/31 04:12:17;;;;;;;5.93;4.70;;;;;;;6.44;100.00;98928.25;5037266;28;20414;-80
2024/01/31 04:14:43;;;;;;;5.97;4.22;;;;;;;6.43;100.00;98921.38;5038040;28;20399;-80
2024/01/31 04:17:09;;;;;;;6.10;4.83;;;;;;;6.43;100.00;98926.63;5036840;28;20777;-79
2024/01/31 04:19:36;;;;;;;4.85;4.15;;;;;;;6.42;100.00;98925.81;5035955;28;20880;-80
2024/01/31 04:22:03;;;;;;;5.30;4.32;;;;;;;6.41;100.00;98926.81;5035929;28;20387;-80
2024/01/31 04:24:29;;;;;;;5.35;4.30;;;;;;;6.41;100.00;98933.88;5035910;28;20423;-79
2024/01/31 04:26:56;;;;;;;7.72;5.18;;;;;;;6.40;100.00;98934.88;5036408;28;20395;-80
2024/01/31 04:29:22;;;;;;;5.38;4.55;;;;;;;6.37;100.00;98935.25;5036002;28;20395;-80
2024/01/31 04:31:53;;;;;;;4.95;4.32;;;;;;;6.38;100.00;98932.47;5036888;28;20884;-80
2024/01/31 04:34:20;;;;;;;6.03;4.57;;;;;;;6.37;100.00;98933.44;5036097;28;20776;-80
2024/01/31 04:36:46;;;;;;;5.80;4.45;;;;;;;6.36;100.00;98936.25;5036464;28;20497;-79
2024/01/31 04:39:14;;;;;;;6.33;5.30;;;;;;;6.35;100.00;98939.88;5036249;28;20567;-80
2024/01/31 04:41:40;;;;;;;6.20;4.88;;;;;;;6.34;100.00;98940.88;5036236;28;20482;-80
2024/01/31 04:44:06;;;;;;;7.60;5.05;;;;;;;6.32;100.00;98940.25;5036600;28;20423;-80
2024/01/31 04:46:32;;;;;;;6.88;5.00;;;;;;;6.29;100.00;98941.44;5036188;28;20395;-79
2024/01/31 04:48:59;;;;;;;6.10;4.85;;;;;;;6.30;100.00;98937.81;5036514;28;20459;-80
2024/01/31 04:51:26;;;;;;;7.70;5.45;;;;;;;6.29;100.00;98938.00;5033210;28;20402;-81
2024/01/31 04:53:52;;;;;;;9.95;6.70;;;;;;;6.29;100.00;98945.91;5036923;28;20410;-79
2024/01/31 04:56:20;;;;;;;12.85;7.53;;;;;;;6.28;100.00;98960.84;5036097;28;20892;-81
2024/01/31 04:58:46;;;;;;;9.50;6.60;;;;;;;6.27;100.00;98968.91;5036272;28;20880;-80
2024/01/31 05:01:12;;;;;;;22.80;12.02;;;;;;;6.26;100.00;98962.84;5036643;28;20399;-79
2024/01/31 05:03:38;;;;;;;20.43;10.30;;;;;;;6.27;100.00;98961.84;5041126;28;20410;-80
2024/01/31 05:06:05;;;;;;;17.85;8.77;;;;;;;6.27;100.00;98958.41;5053010;28;20885;-79
2024/01/31 05:08:31;;;;;;;15.35;8.65;;;;;;;6.27;100.00;98969.75;5056950;28;20437;-80
2024/01/31 05:10:57;;;;;;;12.88;8.02;;;;;;;6.27;100.00;98964.47;5056193;28;20398;-80
2024/01/31 05:13:25;;;;;;;12.80;7.40;;;;;;;6.27;100.00;98972.38;5056183;28;20821;-80
2024/01/31 05:15:52;;;;;;;9.00;6.43;;;;;;;6.27;100.00;98979.44;5056228;28;20421;-80
2024/01/31 05:18:18;;;;;;;11.05;7.13;;;;;;;6.26;100.00;98981.25;5056394;28;20389;-79
2024/01/31 05:20:44;;;;;;;11.20;7.50;;;;;;;6.25;100.00;98979.63;5056956;28;20409;-80
2024/01/31 05:23:10;;;;;;;8.95;6.40;;;;;;;6.24;100.00;98979.81;5040525;28;20415;-79
2024/01/31 05:25:36;;;;;;;9.55;6.57;;;;;;;6.25;100.00;98984.06;5042664;28;20421;-79
2024/01/31 05:28:03;;;;;;;8.20;5.70;;;;;;;6.24;100.00;98988.50;5043721;28;20424;-81
2024/01/31 05:30:30;;;;;;;7.97;5.53;;;;;;;6.24;100.00;98987.72;5035966;28;20541;-79
2024/01/31 05:32:56;;;;;;;6.78;5.15;;;;;;;6.24;100.00;98996.41;5035194;28;20402;-79
2024/01/31 05:35:22;;;;;;;9.15;5.65;;;;;;;6.22;100.00;98993.97;5035432;28;20400;-80
2024/01/31 05:37:49;;;;;;;8.40;6.30;;;;;;;6.23;100.00;98994.78;5034817;28;20758;-78
2024/01/31 05:40:16;;;;;;;9.88;6.25;;;;;;;6.23;100.00;99002.69;5030949;28;20938;-80
2024/01/31 05:42:43;;;;;;;9.60;6.20;;;;;;;6.21;100.00;99000.22;5037019;28;20804;-80
2024/01/31 05:45:09;;;;;;;13.00;7.75;;;;;;;6.21;100.00;98996.78;5030424;28;20415;-80
2024/01/31 05:47:37;;;;;;;9.55;7.00;;;;;;;6.20;100.00;98995.97;5035315;28;20431;-81
2024/01/31 05:50:04;;;;;;;10.50;7.00;;;;;;;6.21;100.00;99000.22;5034334;28;20412;-80
2024/01/31 05:52:30;;;;;;;8.70;6.43;;;;;;;6.22;100.00;98991.34;5029896;28;20417;-79
2024/01/31 05:54:56;;;;;;;7.10;5.87;;;;;;;6.24;100.00;98982.47;5043285;28;20403;-78
2024/01/31 05:57:22;;;;;;;7.68;5.45;;;;;;;6.25;100.00;98987.50;5040429;28;20931;-79
2024/01/31 05:59:49;;;;;;;6.47;5.28;;;;;;;6.26;100.00;98988.31;5039246;28;20463;-79
2024/01/31 06:02:15;;;;;;;5.75;4.75;;;;;;;6.26;100.00;98986.50;5040148;28;20494;-79
2024/01/31 06:04:42;;;;;;;4.75;4.22;;;;;;;6.26;100.00;98989.16;5048797;28;20415;-78
2024/01/31 06:07:10;;;;;;;4.90;4.32;;;;;;;6.26;100.00;98985.69;5034401;28;20437;-79
2024/01/31 06:09:36;;;;;;;4.70;4.20;;;;;;;6.25;100.00;98981.44;5035262;28;20418;-79
2024/01/31 06:12:03;;;;;;;5.47;4.70;;;;;;;6.25;100.00;98990.13;5027835;28;20431;-79
2024/01/31 06:14:29;;;;;;;6.90;5.00;;;;;;;6.26;100.00;98988.31;5033602;28;20400;-78
2024/01/31 06:16:55;;;;;;;8.80;5.70;;;;;;;6.26;100.00;98990.94;5029551;28;20435;-80
2024/01/31 06:19:21;;;;;;;6.57;4.72;;;;;;;6.25;100.00;98989.31;5026730;28;20403;-80
2024/01/31 06:21:49;;;;;;;6.63;4.73;;;;;;;6.24;100.00;98993.75;5041213;28;20489;-80
2024/01/31 06:24:15;;;;;;;6.00;4.73;;;;;;;6.26;100.00;99004.09;5038977;28;20534;-80
2024/01/31 06:26:42;;;;;;;6.43;5.20;;;;;;;6.25;100.00;98989.31;5047198;28;20425;-79
2024/01/31 06:29:10;;;;;;;5.80;4.80;;;;;;;6.23;100.00;99000.03;5052600;28;20465;-79
2024/01/31 06:31:45;;;;;;;6.00;4.95;;;;;;;6.23;100.00;99005.31;5046347;28;20428;-79
2024/01/31 06:34:12;;;;;;;5.35;4.57;;;;;;;6.22;100.00;99012.38;5040859;28;20405;-79
2024/01/31 06:36:38;;;;;;;5.72;4.45;;;;;;;6.24;100.00;99006.13;5038922;28;21027;-79
2024/01/31 06:39:05;;;;;;;6.10;4.47;;;;;;;6.22;100.00;99007.13;5039494;28;20395;-79
2024/01/31 06:41:33;;;;;;;5.80;4.50;;;;;;;6.22;100.00;99006.28;5037712;28;20473;-79
2024/01/31 06:43:59;;;;;;;9.52;5.78;;;;;;;6.21;100.00;99016.00;5038232;28;20525;-79
2024/01/31 06:46:25;;;;;;;6.03;5.10;;;;;;;6.19;100.00;99004.84;5038423;28;20482;-79
2024/01/31 06:48:51;;;;;;;6.28;5.10;;;;;;;6.20;100.00;99010.91;5037935;28;20474;-79
2024/01/31 06:51:18;;;;;;;10.45;6.10;;;;;;;6.21;100.00;99013.38;5037700;28;20498;-79
2024/01/31 06:53:44;;;;;;;8.18;5.90;;;;;;;6.21;100.00;99005.47;5037712;28;20432;-79
2024/01/31 06:56:16;;;;;;;7.60;5.90;;;;;;;6.21;100.00;99012.56;5038101;28;20403;-79
2024/01/31 06:58:43;;;;;;;7.22;6.07;;;;;;;6.22;100.00;99011.56;5039479;28;20449;-79
2024/01/31 07:01:09;;;;;;;8.10;5.50;;;;;;;6.22;100.00;99016.81;5037004;28;20407;-79
2024/01/31 07:03:35;;;;;;;7.90;5.30;;;;;;;6.22;100.00;99020.25;5037336;28;20427;-78
2024/01/31 07:06:01;;;;;;;5.93;5.03;;;;;;;6.24;100.00;99027.16;5039002;28;20820;-79
2024/01/31 07:08:28;;;;;;;6.63;4.80;;;;;;;6.24;100.00;99030.56;5037292;28;20478;-79
2024/01/31 07:10:54;;;;;;;6.73;5.10;;;;;;;6.24;100.00;99030.56;5036729;28;20486;-79
2024/01/31 07:13:21;;;;;;;7.25;5.70;;;;;;;6.24;100.00;99027.94;5037762;28;20809;-79
2024/01/31 07:15:47;;;;;;;10.45;7.18;;;;;;;6.24;100.00;99017.44;5037962;28;20547;-79
2024/01/31 07:18:14;;;;;;;9.27;6.85;;;;;;;6.24;100.00;99022.69;5037450;28;20407;-78
2024/01/31 07:20:40;;;;;;;8.85;6.60;;;;;;;6.26;100.00;99012.81;5037185;28;20403;-79
2024/01/31 07:23:06;;;;;;;7.47;5.93;;;;;;;6.27;100.00;99011.81;5037159;28;20399;-79
2024/01/31 07:25:32;;;;;;;6.68;5.40;;;;;;;6.30;100.00;99018.53;5037031;28;20439;-79
2024/01/31 07:27:58;;;;;;;6.68;5.30;;;;;;;6.32;100.00;99019.97;5037358;28;20965;-79
2024/01/31 07:30:26;;;;;;;7.68;6.03;;;;;;;6.34;100.00;99025.03;5037317;28;21050;-79
2024/01/31 07:32:52;;;;;;;10.77;7.10;;;;;;;6.35;100.00;99016.16;5037057;28;20406;-79
2024/01/31 07:35:18;;;;;;;8.73;6.43;;;;;;;6.37;100.00;99029.94;5036888;28;20709;-79
2024/01/31 07:37:44;;;;;;;9.07;6.23;;;;;;;6.39;100.00;99027.97;5037080;28;20486;-79
2024/01/31 07:40:11;;;;;;;8.75;6.50;;;;;;;6.40;100.00;99014.59;5037256;28;20439;-80
2024/01/31 07:42:37;;;;;;;7.30;5.78;;;;;;;6.42;100.00;99015.25;5037221;28;21569;-79
2024/01/31 07:45:04;;;;;;;9.57;6.40;;;;;;;6.44;100.00;99010.63;5036727;28;20454;-80
2024/01/31 07:47:32;;;;;;;8.75;6.28;;;;;;;6.45;100.00;99017.50;5049870;28;20422;-80
2024/01/31 07:49:58;;;;;;;6.95;5.68;;;;;;;6.48;100.00;99021.56;5036630;28;21110;-80
2024/01/31 07:52:24;;;;;;;7.50;5.95;;;;;;;6.48;100.00;99027.66;5042172;28;20442;-80
2024/01/31 07:54:50;;;;;;;9.27;6.47;;;;;;;6.51;100.00;99029.91;5036786;28;20752;-79
2024/01/31 07:57:17;;;;;;;7.47;6.00;;;;;;;6.52;100.00;99034.19;5038784;28;20417;-79
2024/01/31 07:59:43;;;;;;;7.07;5.88;;;;;;;6.53;100.00;99027.94;5039129;28;20442;-80
2024/01/31 08:02:09;;;;;;;8.25;6.00;;;;;;;6.54;100.00;99034.00;5045149;28;20400;-80
2024/01/31 08:04:36;;;;;;;7.30;6.00;;;;;;;6.54;100.00;99028.75;5038371;28;20418;-81
2024/01/31 08:07:03;;;;;;;8.45;6.18;;;;;;;6.54;100.00;99016.38;5042947;28;20463;-81
2024/01/31 08:09:29;;;;;;;7.22;5.78;;;;;;;6.55;100.00;99010.13;5043274;28;20395;-78
2024/01/31 08:11:56;;;;;;;10.90;7.15;;;;;;;6.56;100.00;99013.56;5046284;28;20460;-80
2024/01/31 08:14:22;;;;;;;10.38;7.25;;;;;;;6.56;100.00;99018.81;5046172;28;20453;-79
2024/01/31 08:16:51;;;;;;;9.70;6.90;;;;;;;6.57;100.00;99015.19;5040721;28;20403;-80
2024/01/31 08:19:17;;;;;;;9.32;6.38;;;;;;;6.58;100.00;99011.56;5037687;28;20407;-80
2024/01/31 08:21:45;;;;;;;9.35;6.35;;;;;;;6.57;100.00;99016.03;5053805;28;20405;-79
2024/01/31 08:24:11;;;;;;;8.30;6.10;;;;;;;6.57;100.00;99013.38;5039937;28;20436;-80
2024/01/31 08:26:37;;;;;;;7.93;6.40;;;;;;;6.56;100.00;99014.38;5037534;28;20721;-79
2024/01/31 08:29:03;;;;;;;7.20;5.70;;;;;;;6.56;100.00;99024.09;5038095;28;20399;-80
2024/01/31 08:31:29;;;;;;;7.70;5.63;;;;;;;6.56;100.00;99024.91;5037867;28;20395;-80
2024/01/31 08:33:56;;;;;;;8.47;6.47;;;;;;;6.56;100.00;99021.47;5038088;28;20400;-79
2024/01/31 08:36:22;;;;;;;7.05;5.75;;;;;;;6.56;100.00;99021.47;5037235;28;20432;-80
2024/01/31 08:38:49;;;;;;;7.93;5.95;;;;;;;6.57;100.00;99023.09;5037974;28;20411;-80
2024/01/31 08:41:15;;;;;;;7.95;6.22;;;;;;;6.58;100.00;99022.91;5037845;28;20815;-79
2024/01/31 08:43:41;;;;;;;7.75;6.05;;;;;;;6.61;100.00;99021.75;5036973;28;20403;-80
2024/01/31 08:46:08;;;;;;;8.48;6.57;;;;;;;6.66;100.00;99023.81;5033013;28;20432;-80
2024/01/31 08:48:34;;;;;;;8.50;6.68;;;;;;;6.70;100.00;99017.97;5037662;28;20399;-80
2024/01/31 08:51:03;;;;;;;8.77;6.78;;;;;;;6.75;100.00;99026.16;5037837;28;20478;-81
2024/01/31 08:53:29;;;;;;;8.32;6.50;;;;;;;6.82;100.00;99028.84;5039225;28;20399;-79
2024/01/31 08:55:56;;;;;;;7.82;6.40;;;;;;;6.87;100.00;99024.63;5044393;28;20430;-79
2024/01/31 08:58:23;;;;;;;9.27;7.03;;;;;;;6.94;100.00;99016.81;5045225;28;20403;-80
2024/01/31 09:00:49;;;;;;;10.48;6.90;;;;;;;6.99;100.00;99022.34;5038164;28;20399;-80
2024/01/31 09:03:15;;;;;;;10.23;7.20;;;;;;;7.05;100.00;99020.78;5038306;28;20391;-81
2024/01/31 09:05:41;;;;;;;9.13;7.38;;;;;;;7.11;100.00;99014.75;5037626;28;20488;-80
2024/01/31 09:08:07;;;;;;;26.58;16.20;;;;;;;7.14;100.00;99017.00;5037887;28;20891;-80
2024/01/31 09:10:33;;;;;;;21.80;13.95;;;;;;;7.15;100.00;99003.63;5038182;28;20421;-80
2024/01/31 09:13:01;;;;;;;32.30;18.90;;;;;;;7.16;100.00;99004.44;5037906;28;20856;-80
2024/01/31 09:15:27;;;;;;;32.50;18.80;;;;;;;7.16;100.00;99004.44;5037489;28;20879;-80
2024/01/31 09:17:53;;;;;;;22.92;15.10;;;;;;;7.20;100.00;99008.34;5037429;28;20732;-80
2024/01/31 09:20:20;;;;;;;18.98;12.85;;;;;;;7.27;100.00;99004.78;5038832;28;20422;-80
2024/01/31 09:22:46;;;;;;;14.75;11.00;;;;;;;7.37;100.00;99005.25;5037825;28;20888;-80
2024/01/31 09:25:15;;;;;;;14.05;10.63;;;;;;;7.49;100.00;99005.53;5037233;28;20829;-80
2024/01/31 09:27:41;;;;;;;11.00;8.50;;;;;;;7.58;100.00;99007.03;5042132;28;20398;-79
2024/01/31 09:30:09;;;;;;;11.95;8.88;;;;;;;7.66;100.00;99003.44;5043064;28;20404;-78
2024/01/31 09:32:35;;;;;;;12.38;8.65;;;;;;;7.74;100.00;99013.84;5047133;28;20471;-79
2024/01/31 09:35:02;;;;;;;10.65;7.95;;;;;;;7.79;100.00;99019.34;5045324;28;20880;-80
2024/01/31 09:37:28;;;;;;;10.10;7.93;;;;;;;7.83;100.00;99009.22;5043019;28;20887;-79
2024/01/31 09:39:56;;;;;;;9.57;7.60;;;;;;;7.87;100.00;99016.56;5043920;28;20405;-81
2024/01/31 09:42:22;;;;;;;9.45;7.22;;;;;;;7.90;100.00;99018.78;5044001;28;20398;-81
2024/01/31 09:44:50;;;;;;;8.98;6.72;;;;;;;7.93;100.00;99012.31;5044096;28;20419;-82
2024/01/31 09:47:19;;;;;;;9.32;7.00;;;;;;;7.94;100.00;99017.41;5050150;28;20426;-80
2024/01/31 09:49:45;;;;;;;9.53;6.97;;;;;;;7.96;100.00;99010.13;5048939;28;20444;-80
2024/01/31 09:52:13;;;;;;;9.77;6.90;;;;;;;7.98;100.00;99015.19;5045642;28;20490;-81
2024/01/31 09:54:42;;;;;;;8.37;6.70;;;;;;;7.98;100.00;99017.81;5042236;28;20435;-80
2024/01/31 09:57:08;;;;;;;9.32;7.10;;;;;;;7.99;100.00;99017.63;5041859;28;20388;-80
2024/01/31 09:59:35;;;;;;;8.57;6.40;;;;;;;8.00;100.00;99024.53;5041567;28;20395;-80
2024/01/31 10:02:02;;;;;;;8.60;6.90;;;;;;;8.03;100.00;99020.72;5041464;28;20395;-81
2024/01/31 10:04:29;;;;;;;8.48;6.47;;;;;;;8.05;100.00;99016.84;5040807;28;20422;-81
2024/01/31 10:06:55;;;;;;;9.07;7.03;;;;;;;8.06;100.00;99015.84;5051793;28;20415;-80
2024/01/31 10:09:21;;;;;;;8.88;7.20;;;;;;;8.10;100.00;99003.09;5041551;28;20411;-81
2024/01/31 10:11:48;;;;;;;9.10;6.70;;;;;;;8.14;100.00;99005.13;5041058;28;20399;-80
2024/01/31 10:14:14;;;;;;;7.97;6.30;;;;;;;8.21;100.00;99001.72;5040394;28;20410;-80
2024/01/31 10:16:41;;;;;;;10.45;6.72;;;;;;;8.25;100.00;98995.84;5040107;28;20410;-81
2024/01/31 10:19:07;;;;;;;8.32;6.65;;;;;;;8.29;100.00;98996.25;5039343;28;20450;-80
2024/01/31 10:21:35;;;;;;;8.68;6.57;;;;;;;8.34;100.00;98999.19;5037233;28;20403;-80
2024/01/31 10:24:02;;;;;;;8.00;6.13;;;;;;;8.37;100.00;98994.31;5037484;28;20395;-80
2024/01/31 10:26:29;;;;;;;8.00;6.40;;;;;;;8.39;100.00;98996.75;5039348;28;20399;-80
2024/01/31 10:28:57;;;;;;;9.15;7.30;;;;;;;8.41;100.00;98989.47;5040425;28;20395;-79
2024/01/31 10:31:24;;;;;;;9.10;6.88;;;;;;;8.43;100.00;98997.97;5038826;28;20399;-79
2024/01/31 10:33:50;;;;;;;10.98;7.00;;;;;;;8.44;100.00;98981.13;5038371;28;20407;-80
2024/01/31 10:36:17;;;;;;;9.32;6.90;;;;;;;8.48;100.00;98977.91;5039360;28;20915;-80
2024/01/31 10:38:46;;;;;;;9.73;7.25;;;;;;;8.52;100.00;98978.31;5039355;28;20391;-80
2024/01/31 10:41:15;;;;;;;12.77;9.52;;;;;;;8.56;100.00;98982.22;5039562;28;20398;-80
2024/01/31 10:43:43;;;;;;;10.10;8.10;;;;;;;8.58;100.00;98979.34;5039581;28;20391;-80
2024/01/31 10:46:09;;;;;;;9.57;7.40;;;;;;;8.59;100.00;98973.88;5039298;28;20924;-80
2024/01/31 10:48:35;;;;;;;9.52;7.53;;;;;;;8.61;100.00;98971.84;5039552;28;20399;-80
2024/01/31 10:51:02;;;;;;;9.60;7.35;;;;;;;8.63;100.00;98964.56;5041635;28;20407;-80
2024/01/31 10:53:30;;;;;;;9.52;7.00;;;;;;;8.66;100.00;98961.50;5039234;28;20426;-79
2024/01/31 10:55:59;;;;;;;9.82;7.15;;;;;;;8.68;100.00;98959.47;5031216;28;20492;-80
2024/01/31 10:58:27;;;;;;;10.00;7.93;;;;;;;8.68;100.00;98962.13;5038027;28;20391;-80
2024/01/31 11:00:53;;;;;;;8.98;7.45;;;;;;;8.69;100.00;98958.47;5039335;28;20403;-80
2024/01/31 11:03:19;;;;;;;8.93;7.13;;;;;;;8.74;100.00;98963.13;5039349;28;20398;-80
2024/01/31 11:05:49;;;;;;;11.63;8.13;;;;;;;8.77;100.00;98962.75;5039236;28;20426;-80
2024/01/31 11:08:19;;;;;;;9.07;7.43;;;;;;;8.78;100.00;98957.28;5039422;28;20391;-79
2024/01/31 11:10:46;;;;;;;9.33;7.40;;;;;;;8.81;100.00;98956.84;5042124;28;20648;-81
2024/01/31 11:13:14;;;;;;;9.88;7.80;;;;;;;8.86;100.00;98951.00;5037852;28;20442;-80
2024/01/31 11:15:41;;;;;;;10.68;7.53;;;;;;;8.93;100.00;98949.16;5041001;28;20466;-80
2024/01/31 11:18:09;;;;;;;9.18;7.35;;;;;;;9.01;100.00;98951.63;5039791;28;20787;-77
2024/01/31 11:20:37;;;;;;;9.93;7.23;;;;;;;9.11;100.00;98935.34;5040718;28;20457;-78
2024/01/31 11:23:03;;;;;;;8.90;7.20;;;;;;;9.20;100.00;98934.13;5038255;28;20425;-80
2024/01/31 11:25:32;;;;;;;10.23;7.22;;;;;;;9.32;100.00;98932.50;5039118;28;20445;-79
2024/01/31 11:27:59;;;;;;;9.38;7.07;;;;;;;9.44;100.00;98928.22;5038165;28;20498;-78